Time;durP1;ratioP1;P1;durP2;ratioP2;P2;SDS_P1;SDS_P2;PMS_P1;PMS_P2;Temp;Humidity;BMP_temperature;BMP_pressure;BME280_temperature;BME280_humidity;BME280_pressure;Samples;Min_cycle;Max_cycle;Signal;HPM_P1;HPM_P2
2023/05/21 00:00:59;;;;;;;;;9.00;8.00;;;;;;;;4968416;28;45393;-72
2023/05/21 00:03:26;;;;;;;;;7.75;7.00;;;;;;;;4958855;28;45430;-71
2023/05/21 00:05:52;;;;;;;;;9.25;8.50;;;;;;;;4963788;28;46400;-71
2023/05/21 00:08:17;;;;;;;;;8.25;8.25;;;;;;;;4965262;28;45465;-72
2023/05/21 00:10:42;;;;;;;;;9.75;9.75;;;;;;;;4970548;28;45403;-71
2023/05/21 00:13:09;;;;;;;;;8.00;7.75;;;;;;;;4960241;28;45421;-72
2023/05/21 00:15:34;;;;;;;;;12.50;11.25;;;;;;;;4967414;28;47375;-70
2023/05/21 00:18:00;;;;;;;;;9.00;9.00;;;;;;;;4963498;28;45459;-71
2023/05/21 00:20:25;;;;;;;;;12.25;12.25;;;;;;;;4964453;28;45397;-70
2023/05/21 00:22:51;;;;;;;;;10.75;9.50;;;;;;;;4967750;28;45499;-71
2023/05/21 00:25:16;;;;;;;;;9.25;9.25;;;;;;;;4966882;28;46218;-71
2023/05/21 00:27:41;;;;;;;;;11.75;9.75;;;;;;;;4965454;28;45445;-71
2023/05/21 00:30:07;;;;;;;;;11.50;11.25;;;;;;;;4963366;28;45384;-72
2023/05/21 00:32:32;;;;;;;;;11.00;8.50;;;;;;;;4968291;28;45453;-71
2023/05/21 00:34:57;;;;;;;;;14.00;12.00;;;;;;;;4958037;28;45725;-71
2023/05/21 00:37:23;;;;;;;;;11.75;9.00;;;;;;;;4957931;28;45515;-72
2023/05/21 00:39:48;;;;;;;;;13.75;13.50;;;;;;;;4958315;28;45535;-71
2023/05/21 00:42:16;;;;;;;;;15.50;11.75;;;;;;;;4958275;28;45549;-71
2023/05/21 00:44:42;;;;;;;;;11.25;9.75;;;;;;;;4955748;28;47086;-71
2023/05/21 00:47:07;;;;;;;;;14.00;13.00;;;;;;;;4957299;28;45393;-71
2023/05/21 00:49:33;;;;;;;;;9.25;9.25;;;;;;;;4966065;28;45492;-71
2023/05/21 00:52:00;;;;;;;;;10.25;9.00;;;;;;;;4976887;28;45449;-71
2023/05/21 00:54:25;;;;;;;;;10.50;10.25;;;;;;;;4976863;28;45452;-72
2023/05/21 00:56:51;;;;;;;;;10.50;10.50;;;;;;;;4975703;28;45389;-72
2023/05/21 00:59:16;;;;;;;;;12.50;10.25;;;;;;;;4975659;28;45410;-71
2023/05/21 01:01:44;;;;;;;;;10.00;10.00;;;;;;;;4976486;28;45510;-72
2023/05/21 01:04:10;;;;;;;;;15.50;15.50;;;;;;;;4977227;28;45394;-71
2023/05/21 01:06:36;;;;;;;;;13.75;12.75;;;;;;;;4977234;28;45283;-72
2023/05/21 01:09:03;;;;;;;;;12.00;11.00;;;;;;;;4977208;28;45469;-71
2023/05/21 01:11:36;;;;;;;;;11.75;11.25;;;;;;;;4974527;28;45349;-71
2023/05/21 01:14:01;;;;;;;;;11.50;11.50;;;;;;;;4963744;28;45364;-72
2023/05/21 01:16:26;;;;;;;;;12.75;12.25;;;;;;;;4975784;28;45345;-72
2023/05/21 01:18:52;;;;;;;;;14.50;12.75;;;;;;;;4977313;28;45306;-71
2023/05/21 01:21:20;;;;;;;;;11.75;11.75;;;;;;;;4977011;28;45341;-72
2023/05/21 01:23:45;;;;;;;;;13.75;13.50;;;;;;;;4971020;28;46054;-71
2023/05/21 01:26:11;;;;;;;;;12.50;12.50;;;;;;;;4968762;28;45543;-72
2023/05/21 01:28:37;;;;;;;;;11.25;11.00;;;;;;;;4962116;28;45440;-72
2023/05/21 01:31:10;;;;;;;;;12.50;12.00;;;;;;;;4957218;28;45481;-71
2023/05/21 01:33:40;;;;;;;;;18.25;15.50;;;;;;;;4956370;28;46339;-71
2023/05/21 01:36:05;;;;;;;;;16.25;12.50;;;;;;;;4956633;28;45350;-71
2023/05/21 01:38:41;;;;;;;;;14.50;13.50;;;;;;;;4955400;28;45354;-71
2023/05/21 01:41:09;;;;;;;;;12.50;11.25;;;;;;;;4956386;28;45396;-71
2023/05/21 01:43:37;;;;;;;;;12.50;12.50;;;;;;;;4973708;28;46452;-72
2023/05/21 01:46:03;;;;;;;;;13.50;11.75;;;;;;;;4967972;28;45351;-72
2023/05/21 01:48:29;;;;;;;;;13.25;13.25;;;;;;;;4957541;28;45388;-72
2023/05/21 01:50:56;;;;;;;;;19.75;17.75;;;;;;;;4976129;28;45382;-71
2023/05/21 01:53:22;;;;;;;;;11.00;9.25;;;;;;;;4976419;28;45338;-72
2023/05/21 01:55:47;;;;;;;;;15.75;10.75;;;;;;;;4976316;28;45314;-72
2023/05/21 01:58:12;;;;;;;;;17.50;16.00;;;;;;;;4976342;28;45321;-72
2023/05/21 02:00:38;;;;;;;;;18.00;15.00;;;;;;;;4976685;28;45393;-72
2023/05/21 02:03:04;;;;;;;;;16.00;15.00;;;;;;;;4976548;28;46108;-72
2023/05/21 02:05:29;;;;;;;;;18.25;16.75;;;;;;;;4975851;28;45658;-72
2023/05/21 02:07:55;;;;;;;;;14.25;11.25;;;;;;;;4976333;28;45379;-72
2023/05/21 02:10:21;;;;;;;;;14.25;13.75;;;;;;;;4975873;28;45484;-72
2023/05/21 02:12:46;;;;;;;;;15.50;14.50;;;;;;;;4975777;28;45414;-72
2023/05/21 02:15:13;;;;;;;;;13.50;12.50;;;;;;;;4975475;28;45393;-72
2023/05/21 02:17:39;;;;;;;;;15.50;15.50;;;;;;;;4973934;28;45472;-72
2023/05/21 02:20:11;;;;;;;;;16.25;14.00;;;;;;;;4975536;28;45394;-72
2023/05/21 02:22:43;;;;;;;;;20.75;16.50;;;;;;;;4975170;28;45403;-72
2023/05/21 02:25:09;;;;;;;;;11.25;11.25;;;;;;;;4975565;28;45412;-72
2023/05/21 02:27:36;;;;;;;;;16.25;16.25;;;;;;;;4974824;28;45580;-72
2023/05/21 02:30:03;;;;;;;;;13.50;13.50;;;;;;;;4975587;28;45408;-72
2023/05/21 02:32:30;;;;;;;;;16.25;16.25;;;;;;;;4965867;28;45638;-72
2023/05/21 02:34:55;;;;;;;;;13.75;13.50;;;;;;;;4956391;28;45353;-72
2023/05/21 02:37:20;;;;;;;;;15.25;15.25;;;;;;;;4956419;28;45448;-71
2023/05/21 02:39:46;;;;;;;;;19.75;16.75;;;;;;;;4956148;28;45409;-71
2023/05/21 02:42:11;;;;;;;;;15.00;15.00;;;;;;;;4956233;28;45466;-71
2023/05/21 02:44:36;;;;;;;;;13.50;11.00;;;;;;;;4956003;28;45349;-71
2023/05/21 02:47:01;;;;;;;;;15.25;13.00;;;;;;;;4954310;28;45386;-71
2023/05/21 02:49:27;;;;;;;;;13.00;11.75;;;;;;;;4963782;28;45631;-71
2023/05/21 02:51:52;;;;;;;;;11.25;10.50;;;;;;;;4974600;28;46345;-71
2023/05/21 02:54:17;;;;;;;;;16.50;14.50;;;;;;;;4974920;28;45553;-71
2023/05/21 02:56:42;;;;;;;;;16.25;15.00;;;;;;;;4968108;28;45429;-71
2023/05/21 02:59:07;;;;;;;;;21.50;19.00;;;;;;;;4962834;28;45464;-71
2023/05/21 03:01:33;;;;;;;;;18.00;17.50;;;;;;;;4953465;28;48482;-72
2023/05/21 03:03:58;;;;;;;;;16.25;15.75;;;;;;;;4955580;28;45426;-72
2023/05/21 03:06:23;;;;;;;;;18.25;18.00;;;;;;;;4955897;28;45384;-72
2023/05/21 03:08:48;;;;;;;;;13.00;13.00;;;;;;;;4954944;28;45422;-72
2023/05/21 03:11:13;;;;;;;;;17.00;15.50;;;;;;;;4954942;28;47183;-72
2023/05/21 03:13:39;;;;;;;;;16.25;14.00;;;;;;;;4958266;28;45356;-72
2023/05/21 03:16:04;;;;;;;;;17.00;15.75;;;;;;;;4965800;28;45473;-72
2023/05/21 03:18:29;;;;;;;;;14.75;13.25;;;;;;;;4974497;28;45511;-72
2023/05/21 03:20:57;;;;;;;;;14.25;12.75;;;;;;;;4961416;28;47418;-72
2023/05/21 03:23:22;;;;;;;;;9.00;9.00;;;;;;;;4967995;28;45536;-71
2023/05/21 03:25:48;;;;;;;;;14.25;12.50;;;;;;;;4975494;28;45571;-72
2023/05/21 03:28:13;;;;;;;;;14.50;13.50;;;;;;;;4975282;28;45286;-72
2023/05/21 03:30:38;;;;;;;;;15.75;12.75;;;;;;;;4975173;28;46443;-72
2023/05/21 03:33:03;;;;;;;;;12.50;12.50;;;;;;;;4962613;28;45504;-72
2023/05/21 03:35:29;;;;;;;;;15.00;12.75;;;;;;;;4955917;28;45326;-72
2023/05/21 03:37:54;;;;;;;;;15.00;14.25;;;;;;;;4955879;28;45398;-72
2023/05/21 03:40:20;;;;;;;;;19.25;17.75;;;;;;;;4955450;28;45659;-72
2023/05/21 03:42:45;;;;;;;;;18.50;17.50;;;;;;;;4954120;28;45370;-71
2023/05/21 03:45:11;;;;;;;;;15.50;15.50;;;;;;;;4956732;28;45313;-72
2023/05/21 03:47:36;;;;;;;;;15.00;15.00;;;;;;;;4958925;28;45446;-72
2023/05/21 03:50:02;;;;;;;;;14.50;10.50;;;;;;;;4971170;28;46146;-71
2023/05/21 03:52:27;;;;;;;;;16.50;15.50;;;;;;;;4977581;28;45726;-71
2023/05/21 03:54:52;;;;;;;;;18.75;18.25;;;;;;;;4978252;28;45392;-71
2023/05/21 03:57:17;;;;;;;;;18.00;15.50;;;;;;;;4964125;28;45525;-72
2023/05/21 03:59:43;;;;;;;;;18.00;15.75;;;;;;;;4958533;28;46937;-72
2023/05/21 04:02:08;;;;;;;;;12.50;12.50;;;;;;;;4960516;28;45407;-72
2023/05/21 04:04:33;;;;;;;;;18.00;18.00;;;;;;;;4971933;28;45385;-71
2023/05/21 04:06:58;;;;;;;;;11.00;11.00;;;;;;;;4958266;28;45376;-71
2023/05/21 04:09:24;;;;;;;;;18.75;17.25;;;;;;;;4958229;28;45424;-71
2023/05/21 04:11:49;;;;;;;;;19.50;17.00;;;;;;;;4958511;28;45356;-72
2023/05/21 04:14:14;;;;;;;;;18.50;16.00;;;;;;;;4958791;28;45486;-71
2023/05/21 04:16:42;;;;;;;;;19.00;17.00;;;;;;;;4958173;28;45566;-71
2023/05/21 04:19:08;;;;;;;;;17.75;13.75;;;;;;;;4957819;28;45845;-71
2023/05/21 04:21:33;;;;;;;;;18.00;17.00;;;;;;;;4957721;28;45469;-71
2023/05/21 04:23:59;;;;;;;;;16.25;16.25;;;;;;;;4957996;28;45447;-71
2023/05/21 04:26:25;;;;;;;;;15.75;14.75;;;;;;;;4977017;28;45399;-71
2023/05/21 04:28:50;;;;;;;;;15.00;13.50;;;;;;;;4967080;28;47187;-72
2023/05/21 04:31:15;;;;;;;;;20.50;18.50;;;;;;;;4972526;28;45452;-72
2023/05/21 04:33:41;;;;;;;;;21.50;18.75;;;;;;;;4964044;28;45513;-72
2023/05/21 04:36:08;;;;;;;;;19.00;16.75;;;;;;;;4967219;28;45534;-71
2023/05/21 04:38:35;;;;;;;;;21.00;21.00;;;;;;;;4964222;28;45698;-71
2023/05/21 04:41:03;;;;;;;;;17.75;16.75;;;;;;;;4957509;28;45405;-71
2023/05/21 04:43:28;;;;;;;;;18.00;17.25;;;;;;;;4957326;28;45382;-71
2023/05/21 04:45:53;;;;;;;;;17.75;17.00;;;;;;;;4960209;28;45502;-72
2023/05/21 04:48:19;;;;;;;;;21.50;18.50;;;;;;;;4966603;28;47145;-72
2023/05/21 04:50:44;;;;;;;;;24.00;18.25;;;;;;;;4975536;28;45393;-71
2023/05/21 04:53:10;;;;;;;;;15.75;14.75;;;;;;;;4977180;28;45304;-73
2023/05/21 04:55:38;;;;;;;;;17.75;16.25;;;;;;;;4976036;28;45516;-72
2023/05/21 04:58:05;;;;;;;;;17.25;14.00;;;;;;;;4977591;28;45514;-72
2023/05/21 05:00:31;;;;;;;;;20.50;16.50;;;;;;;;4977148;28;45728;-71
2023/05/21 05:02:56;;;;;;;;;19.00;17.00;;;;;;;;4976250;28;45405;-71
2023/05/21 05:05:21;;;;;;;;;19.00;18.00;;;;;;;;4976378;28;45533;-71
2023/05/21 05:07:47;;;;;;;;;18.00;16.00;;;;;;;;4977011;28;47464;-71
2023/05/21 05:10:12;;;;;;;;;20.50;15.75;;;;;;;;4968423;28;45534;-71
2023/05/21 05:12:37;;;;;;;;;17.00;16.25;;;;;;;;4966604;28;45441;-71
2023/05/21 05:15:02;;;;;;;;;18.00;18.00;;;;;;;;4971982;28;45583;-72
2023/05/21 05:17:27;;;;;;;;;21.50;20.25;;;;;;;;4967706;28;45671;-72
2023/05/21 05:19:53;;;;;;;;;20.25;20.25;;;;;;;;4973763;28;45540;-72
2023/05/21 05:22:18;;;;;;;;;11.75;10.25;;;;;;;;4961149;28;45441;-72
2023/05/21 05:24:43;;;;;;;;;20.75;17.00;;;;;;;;4976812;28;45528;-72
2023/05/21 05:27:08;;;;;;;;;22.25;17.25;;;;;;;;4976968;28;47342;-72
2023/05/21 05:29:33;;;;;;;;;17.25;17.25;;;;;;;;4977099;28;45413;-72
2023/05/21 05:31:59;;;;;;;;;18.50;18.00;;;;;;;;4973419;28;45498;-72
2023/05/21 05:34:24;;;;;;;;;17.25;16.50;;;;;;;;4957375;28;45501;-72
2023/05/21 05:36:49;;;;;;;;;18.50;16.75;;;;;;;;4957196;28;45818;-72
2023/05/21 05:39:14;;;;;;;;;19.50;18.50;;;;;;;;4957237;28;45411;-72
2023/05/21 05:41:40;;;;;;;;;21.00;19.00;;;;;;;;4957664;28;45526;-72
2023/05/21 05:44:05;;;;;;;;;17.50;14.25;;;;;;;;4957032;28;45451;-72
2023/05/21 05:46:30;;;;;;;;;21.00;18.00;;;;;;;;4957340;28;47296;-73
2023/05/21 05:48:55;;;;;;;;;20.00;19.00;;;;;;;;4960771;28;45469;-72
2023/05/21 05:51:20;;;;;;;;;18.75;17.00;;;;;;;;4977033;28;45378;-72
2023/05/21 05:53:46;;;;;;;;;20.75;19.75;;;;;;;;4976922;28;45361;-72
2023/05/21 05:56:11;;;;;;;;;23.25;18.75;;;;;;;;4975086;28;47434;-72
2023/05/21 05:58:36;;;;;;;;;16.25;15.50;;;;;;;;4976816;28;45425;-72
2023/05/21 06:01:01;;;;;;;;;18.50;15.75;;;;;;;;4975075;28;45376;-72
2023/05/21 06:03:27;;;;;;;;;20.50;19.00;;;;;;;;4975081;28;45435;-72
2023/05/21 06:05:52;;;;;;;;;17.75;15.75;;;;;;;;4976271;28;46280;-73
2023/05/21 06:08:18;;;;;;;;;21.75;19.50;;;;;;;;4975448;28;45439;-72
2023/05/21 06:10:43;;;;;;;;;19.75;18.00;;;;;;;;4976493;28;45491;-72
2023/05/21 06:13:08;;;;;;;;;23.50;20.25;;;;;;;;4976756;28;45699;-72
2023/05/21 06:15:33;;;;;;;;;20.75;19.50;;;;;;;;4977677;28;46005;-72
2023/05/21 06:17:58;;;;;;;;;19.75;19.75;;;;;;;;4976240;28;45383;-72
2023/05/21 06:20:24;;;;;;;;;20.50;19.50;;;;;;;;4975164;28;45469;-72
2023/05/21 06:22:49;;;;;;;;;17.00;16.75;;;;;;;;4976273;28;45463;-72
2023/05/21 06:25:14;;;;;;;;;17.75;17.50;;;;;;;;4976659;28;45321;-73
2023/05/21 06:27:40;;;;;;;;;18.50;18.50;;;;;;;;4974458;28;45665;-72
2023/05/21 06:30:06;;;;;;;;;17.25;16.50;;;;;;;;4956730;28;45487;-72
2023/05/21 06:32:31;;;;;;;;;16.50;15.00;;;;;;;;4956951;28;45397;-72
2023/05/21 06:34:56;;;;;;;;;21.75;21.50;;;;;;;;4955691;28;46039;-72
2023/05/21 06:37:21;;;;;;;;;24.75;19.00;;;;;;;;4956902;28;45517;-72
2023/05/21 06:39:47;;;;;;;;;13.75;11.75;;;;;;;;4956790;28;45381;-71
2023/05/21 06:42:12;;;;;;;;;18.50;18.50;;;;;;;;4956932;28;45462;-71
2023/05/21 06:44:37;;;;;;;;;24.50;22.00;;;;;;;;4957018;28;45476;-70
2023/05/21 06:47:02;;;;;;;;;16.50;15.50;;;;;;;;4956576;28;45370;-70
2023/05/21 06:49:27;;;;;;;;;26.00;24.00;;;;;;;;4964629;28;45376;-71
2023/05/21 06:51:53;;;;;;;;;20.00;18.75;;;;;;;;4974863;28;45398;-71
2023/05/21 06:54:18;;;;;;;;;20.00;17.50;;;;;;;;4974707;28;45389;-71
2023/05/21 06:56:43;;;;;;;;;21.25;19.00;;;;;;;;4974146;28;45428;-71
2023/05/21 06:59:08;;;;;;;;;19.25;15.00;;;;;;;;4975823;28;45335;-71
2023/05/21 07:01:34;;;;;;;;;19.00;19.00;;;;;;;;4975348;28;45356;-71
2023/05/21 07:03:59;;;;;;;;;16.75;15.25;;;;;;;;4975429;28;45628;-71
2023/05/21 07:06:24;;;;;;;;;20.00;19.25;;;;;;;;4975820;28;45373;-71
2023/05/21 07:08:49;;;;;;;;;18.50;16.50;;;;;;;;4974409;28;45338;-71
2023/05/21 07:11:15;;;;;;;;;18.25;15.75;;;;;;;;4975589;28;45378;-71
2023/05/21 07:13:40;;;;;;;;;16.25;15.25;;;;;;;;4975010;28;46360;-71
2023/05/21 07:16:05;;;;;;;;;15.50;14.50;;;;;;;;4968829;28;45326;-72
2023/05/21 07:18:30;;;;;;;;;19.50;16.00;;;;;;;;4964354;28;45231;-70
2023/05/21 07:20:56;;;;;;;;;16.25;16.25;;;;;;;;4955902;28;45295;-71
2023/05/21 07:23:21;;;;;;;;;15.00;15.00;;;;;;;;4966699;28;46517;-71
2023/05/21 07:25:46;;;;;;;;;18.00;14.00;;;;;;;;4962631;28;45381;-71
2023/05/21 07:28:11;;;;;;;;;17.50;17.25;;;;;;;;4963178;28;45562;-71
2023/05/21 07:30:37;;;;;;;;;20.00;19.50;;;;;;;;4955427;28;45440;-70
2023/05/21 07:33:02;;;;;;;;;19.50;17.75;;;;;;;;4954279;28;47498;-70
2023/05/21 07:35:27;;;;;;;;;23.75;22.00;;;;;;;;4955711;28;45361;-71
2023/05/21 07:37:53;;;;;;;;;18.00;17.25;;;;;;;;4955657;28;45487;-70
2023/05/21 07:40:18;;;;;;;;;16.00;15.25;;;;;;;;4954924;28;45449;-71
2023/05/21 07:42:43;;;;;;;;;24.00;20.75;;;;;;;;4955110;28;45527;-70
2023/05/21 07:45:08;;;;;;;;;19.50;19.50;;;;;;;;4954191;28;45803;-70
2023/05/21 07:47:34;;;;;;;;;20.25;19.00;;;;;;;;4955669;28;46030;-70
2023/05/21 07:49:59;;;;;;;;;21.50;19.00;;;;;;;;4967605;28;45341;-70
2023/05/21 07:52:24;;;;;;;;;24.25;21.75;;;;;;;;4974219;28;45426;-70
2023/05/21 07:54:49;;;;;;;;;23.25;21.75;;;;;;;;4973912;28;45404;-70
2023/05/21 07:57:15;;;;;;;;;17.25;13.50;;;;;;;;4975312;28;45502;-71
2023/05/21 07:59:40;;;;;;;;;16.75;14.50;;;;;;;;4974359;28;45611;-71
2023/05/21 08:02:06;;;;;;;;;18.25;16.00;;;;;;;;4967851;28;46107;-71
2023/05/21 08:04:31;;;;;;;;;13.75;13.00;;;;;;;;4954768;28;45441;-71
2023/05/21 08:06:56;;;;;;;;;17.25;16.00;;;;;;;;4955465;28;45492;-70
2023/05/21 08:09:21;;;;;;;;;14.00;12.25;;;;;;;;4955382;28;45389;-71
2023/05/21 08:11:46;;;;;;;;;13.50;12.25;;;;;;;;4964279;28;46279;-71
2023/05/21 08:14:12;;;;;;;;;16.50;15.50;;;;;;;;4968189;28;45456;-71
2023/05/21 08:16:37;;;;;;;;;14.50;14.25;;;;;;;;4965277;28;45408;-71
2023/05/21 08:19:03;;;;;;;;;14.50;11.25;;;;;;;;4959464;28;45456;-70
2023/05/21 08:21:28;;;;;;;;;9.75;8.75;;;;;;;;4963205;28;46735;-70
2023/05/21 08:23:53;;;;;;;;;14.25;14.25;;;;;;;;4971498;28;45505;-71
2023/05/21 08:26:18;;;;;;;;;14.25;12.00;;;;;;;;4974127;28;45600;-72
2023/05/21 08:28:44;;;;;;;;;18.75;16.00;;;;;;;;4963877;28;45392;-72
2023/05/21 08:31:09;;;;;;;;;13.00;13.00;;;;;;;;4955528;28;46654;-72
2023/05/21 08:33:38;;;;;;;;;16.25;13.50;;;;;;;;4958232;28;45441;-71
2023/05/21 08:36:04;;;;;;;;;7.75;7.50;;;;;;;;4958622;28;45440;-71
2023/05/21 08:38:30;;;;;;;;;7.00;4.75;;;;;;;;4957066;28;45427;-71
2023/05/21 08:40:55;;;;;;;;;14.00;12.75;;;;;;;;4964313;28;46154;-71
2023/05/21 08:43:20;;;;;;;;;11.75;10.00;;;;;;;;4966358;28;45378;-72
2023/05/21 08:45:50;;;;;;;;;11.25;10.00;;;;;;;;4958320;28;45380;-70
2023/05/21 08:48:16;;;;;;;;;12.75;10.00;;;;;;;;4960011;28;47001;-71
2023/05/21 08:50:41;;;;;;;;;8.50;8.25;;;;;;;;4968467;28;46984;-71
2023/05/21 08:53:07;;;;;;;;;9.50;7.00;;;;;;;;4967041;28;45442;-71
2023/05/21 08:55:33;;;;;;;;;10.50;9.25;;;;;;;;4967158;28;45385;-70
2023/05/21 08:57:58;;;;;;;;;8.50;7.25;;;;;;;;4967455;28;45604;-70
2023/05/21 09:00:23;;;;;;;;;8.25;8.25;;;;;;;;4966266;28;45329;-70
2023/05/21 09:02:49;;;;;;;;;9.00;8.25;;;;;;;;4966460;28;45485;-70
2023/05/21 09:05:15;;;;;;;;;11.00;11.00;;;;;;;;4965584;28;45550;-71
2023/05/21 09:07:49;;;;;;;;;10.25;9.00;;;;;;;;4967890;28;45486;-71
2023/05/21 09:10:17;;;;;;;;;7.50;7.50;;;;;;;;4972027;28;45377;-71
2023/05/21 09:12:42;;;;;;;;;8.75;8.75;;;;;;;;4964525;28;45492;-71
2023/05/21 09:15:07;;;;;;;;;10.25;10.00;;;;;;;;4968854;28;45413;-71
2023/05/21 09:17:33;;;;;;;;;9.25;9.25;;;;;;;;4952534;28;45608;-72
2023/05/21 09:20:14;;;;;;;;;12.25;11.25;;;;;;;;4968458;28;45437;-71
2023/05/21 09:22:43;;;;;;;;;9.00;9.00;;;;;;;;4968678;28;45372;-71
2023/05/21 09:25:12;;;;;;;;;15.50;14.75;;;;;;;;4967371;28;45442;-71
2023/05/21 09:27:37;;;;;;;;;10.50;8.00;;;;;;;;4960100;28;45334;-71
2023/05/21 09:30:03;;;;;;;;;10.00;8.25;;;;;;;;4965714;28;46866;-70
2023/05/21 09:32:28;;;;;;;;;8.25;8.25;;;;;;;;4960071;28;45699;-72
2023/05/21 09:34:54;;;;;;;;;10.75;10.50;;;;;;;;4971809;28;45481;-71
2023/05/21 09:37:19;;;;;;;;;7.00;7.00;;;;;;;;4965874;28;45425;-71
2023/05/21 09:39:46;;;;;;;;;13.75;12.25;;;;;;;;4966093;28;45558;-72
2023/05/21 09:42:11;;;;;;;;;14.00;14.00;;;;;;;;4966237;28;45421;-71
2023/05/21 09:44:37;;;;;;;;;8.25;8.25;;;;;;;;4964789;28;45488;-69
2023/05/21 09:47:02;;;;;;;;;9.50;9.50;;;;;;;;4962629;28;45405;-71
2023/05/21 09:49:27;;;;;;;;;9.50;9.50;;;;;;;;4968550;28;45694;-72
2023/05/21 09:51:56;;;;;;;;;14.00;13.00;;;;;;;;4964883;28;45480;-71
2023/05/21 09:54:21;;;;;;;;;9.25;9.25;;;;;;;;4959711;28;45465;-72
2023/05/21 09:56:46;;;;;;;;;8.25;7.25;;;;;;;;4965659;28;45408;-71
2023/05/21 09:59:12;;;;;;;;;12.50;11.75;;;;;;;;4962261;28;45389;-72
2023/05/21 10:01:37;;;;;;;;;15.00;12.25;;;;;;;;4964351;28;45365;-72
2023/05/21 10:04:05;;;;;;;;;14.50;13.50;;;;;;;;4969289;28;45331;-72
2023/05/21 10:06:32;;;;;;;;;11.75;11.75;;;;;;;;4963092;28;45800;-72
2023/05/21 10:08:58;;;;;;;;;13.00;11.75;;;;;;;;4967813;28;47865;-72
2023/05/21 10:11:25;;;;;;;;;13.00;13.00;;;;;;;;4967740;28;45493;-71
2023/05/21 10:13:53;;;;;;;;;12.25;12.25;;;;;;;;4965946;28;45485;-69
2023/05/21 10:16:18;;;;;;;;;12.25;12.25;;;;;;;;4967220;28;45529;-71
2023/05/21 10:18:45;;;;;;;;;9.00;8.25;;;;;;;;4967422;28;45475;-72
2023/05/21 10:21:10;;;;;;;;;10.00;10.00;;;;;;;;4976089;28;45439;-71
2023/05/21 10:23:36;;;;;;;;;15.50;13.50;;;;;;;;4967325;28;45464;-71
2023/05/21 10:26:02;;;;;;;;;7.25;7.25;;;;;;;;4964104;28;45453;-72
2023/05/21 10:28:29;;;;;;;;;12.00;9.50;;;;;;;;4968656;28;45947;-72
2023/05/21 10:30:55;;;;;;;;;14.50;12.75;;;;;;;;4967339;28;45488;-71
2023/05/21 10:33:21;;;;;;;;;15.50;15.50;;;;;;;;4962278;28;45541;-71
2023/05/21 10:35:48;;;;;;;;;12.00;10.75;;;;;;;;4964892;28;45597;-71
2023/05/21 10:38:17;;;;;;;;;17.50;13.25;;;;;;;;4955987;28;46775;-72
2023/05/21 10:40:42;;;;;;;;;11.25;11.25;;;;;;;;4955347;28;45409;-70
2023/05/21 10:43:26;;;;;;;;;12.25;11.50;;;;;;;;4959629;28;45457;-70
2023/05/21 10:45:54;;;;;;;;;12.00;11.50;;;;;;;;4958673;28;45569;-71
2023/05/21 10:48:38;;;;;;;;;12.50;12.50;;;;;;;;4963594;28;45730;-72
2023/05/21 10:51:22;;;;;;;;;13.50;12.25;;;;;;;;4953487;28;45513;-72
2023/05/21 10:54:06;;;;;;;;;9.50;9.50;;;;;;;;4957351;28;45811;-72
2023/05/21 10:56:38;;;;;;;;;11.25;11.25;;;;;;;;4963811;28;45495;-72
2023/05/21 10:59:20;;;;;;;;;16.50;16.50;;;;;;;;4953905;28;47115;-71
2023/05/21 11:01:47;;;;;;;;;8.25;8.00;;;;;;;;4966228;28;45284;-72
2023/05/21 11:04:14;;;;;;;;;11.00;10.00;;;;;;;;4965127;28;45446;-72
2023/05/21 11:06:39;;;;;;;;;11.00;10.00;;;;;;;;4966345;28;45473;-72
2023/05/21 11:09:14;;;;;;;;;15.00;14.00;;;;;;;;4959886;28;47524;-73
2023/05/21 11:11:42;;;;;;;;;10.25;8.00;;;;;;;;4968630;28;45648;-72
2023/05/21 11:14:26;;;;;;;;;12.75;12.00;;;;;;;;4974407;28;45440;-72
2023/05/21 11:16:52;;;;;;;;;13.50;13.50;;;;;;;;4956802;28;45565;-71
2023/05/21 11:19:17;;;;;;;;;15.75;14.50;;;;;;;;4968669;28;46148;-71
2023/05/21 11:21:42;;;;;;;;;15.50;13.75;;;;;;;;4968422;28;45394;-71
2023/05/21 11:24:09;;;;;;;;;15.75;13.50;;;;;;;;4969193;28;45573;-73
2023/05/21 11:26:47;;;;;;;;;12.25;12.25;;;;;;;;4957996;28;45417;-71
2023/05/21 11:29:13;;;;;;;;;15.25;14.25;;;;;;;;4960489;28;46243;-70
2023/05/21 11:31:38;;;;;;;;;8.50;8.50;;;;;;;;4966973;28;45487;-72
2023/05/21 11:34:09;;;;;;;;;6.50;6.00;;;;;;;;4963238;28;45405;-71
2023/05/21 11:36:43;;;;;;;;;13.00;10.75;;;;;;;;4974613;28;45542;-72
2023/05/21 11:39:21;;;;;;;;;11.25;11.25;;;;;;;;4968087;28;46206;-73
2023/05/21 11:41:49;;;;;;;;;11.75;11.75;;;;;;;;4969009;28;45329;-71
2023/05/21 11:44:15;;;;;;;;;13.50;12.00;;;;;;;;4959327;28;45504;-71
2023/05/21 11:46:41;;;;;;;;;11.00;11.00;;;;;;;;4972377;28;45405;-71
2023/05/21 11:49:06;;;;;;;;;12.50;10.50;;;;;;;;4962505;28;46172;-72
2023/05/21 11:51:32;;;;;;;;;20.00;16.50;;;;;;;;4965694;28;45515;-73
2023/05/21 11:53:57;;;;;;;;;7.75;7.75;;;;;;;;4965568;28;45479;-71
2023/05/21 11:56:24;;;;;;;;;11.25;9.50;;;;;;;;4957279;28;45555;-71
2023/05/21 11:58:53;;;;;;;;;9.75;9.75;;;;;;;;4972267;28;46334;-73
2023/05/21 12:01:22;;;;;;;;;13.25;12.25;;;;;;;;4963172;28;45421;-74
2023/05/21 12:03:48;;;;;;;;;8.50;8.50;;;;;;;;4970040;28;45487;-72
2023/05/21 12:06:13;;;;;;;;;12.25;12.25;;;;;;;;4972706;28;45403;-73
2023/05/21 12:08:38;;;;;;;;;11.75;11.75;;;;;;;;4963997;28;45673;-75
2023/05/21 12:11:03;;;;;;;;;8.00;8.00;;;;;;;;4966043;28;45615;-72
2023/05/21 12:13:29;;;;;;;;;8.00;8.00;;;;;;;;4963825;28;45569;-74
2023/05/21 12:15:54;;;;;;;;;10.75;9.50;;;;;;;;4968641;28;45520;-72
2023/05/21 12:18:19;;;;;;;;;9.00;7.50;;;;;;;;4968299;28;46349;-72
2023/05/21 12:20:45;;;;;;;;;8.25;7.25;;;;;;;;4966778;28;45612;-71
2023/05/21 12:23:22;;;;;;;;;7.25;6.00;;;;;;;;4965859;28;45589;-73
2023/05/21 12:25:48;;;;;;;;;7.75;7.75;;;;;;;;4968590;28;45393;-72
2023/05/21 12:28:14;;;;;;;;;9.00;7.75;;;;;;;;4968064;28;46239;-73
2023/05/21 12:30:39;;;;;;;;;5.50;5.50;;;;;;;;4967884;28;45629;-73
2023/05/21 12:33:05;;;;;;;;;5.50;3.75;;;;;;;;4966269;28;46393;-71
2023/05/21 12:35:31;;;;;;;;;8.25;8.25;;;;;;;;4963425;28;45441;-71
2023/05/21 12:37:56;;;;;;;;;10.25;9.00;;;;;;;;4969034;28;48194;-71
2023/05/21 12:40:33;;;;;;;;;10.00;8.25;;;;;;;;4975389;28;45459;-71
2023/05/21 12:42:58;;;;;;;;;9.00;9.00;;;;;;;;4970602;28;45442;-71
2023/05/21 12:45:23;;;;;;;;;8.00;8.00;;;;;;;;4972659;28;45338;-71
2023/05/21 12:47:54;;;;;;;;;7.50;7.50;;;;;;;;4969108;28;46127;-71
2023/05/21 12:50:20;;;;;;;;;12.75;11.00;;;;;;;;4971840;28;45451;-71
2023/05/21 12:52:45;;;;;;;;;11.00;11.00;;;;;;;;4973684;28;45818;-70
2023/05/21 12:55:14;;;;;;;;;8.50;8.50;;;;;;;;4972451;28;45517;-72
2023/05/21 12:57:39;;;;;;;;;7.00;6.75;;;;;;;;4970057;28;47465;-72
2023/05/21 13:00:05;;;;;;;;;10.75;10.75;;;;;;;;4975205;28;45435;-72
2023/05/21 13:02:37;;;;;;;;;7.75;7.75;;;;;;;;4976977;28;45374;-71
2023/05/21 13:05:06;;;;;;;;;11.00;10.00;;;;;;;;4967253;28;45476;-71
2023/05/21 13:07:32;;;;;;;;;13.25;11.75;;;;;;;;4965302;28;46898;-71
2023/05/21 13:09:57;;;;;;;;;10.50;9.50;;;;;;;;4966814;28;45350;-72
2023/05/21 13:12:23;;;;;;;;;9.50;9.50;;;;;;;;4970198;28;45664;-72
2023/05/21 13:14:50;;;;;;;;;12.00;11.00;;;;;;;;4966458;28;45531;-72
2023/05/21 13:17:15;;;;;;;;;9.25;9.25;;;;;;;;4959870;28;45433;-71
2023/05/21 13:19:40;;;;;;;;;10.75;10.75;;;;;;;;4968597;28;45669;-71
2023/05/21 13:22:06;;;;;;;;;10.75;10.25;;;;;;;;4965815;28;45426;-71
2023/05/21 13:24:31;;;;;;;;;10.25;8.25;;;;;;;;4950794;28;45622;-71
2023/05/21 13:26:56;;;;;;;;;11.75;11.75;;;;;;;;4967821;28;46061;-72
2023/05/21 13:29:22;;;;;;;;;9.25;8.75;;;;;;;;4969123;28;45495;-72
2023/05/21 13:31:47;;;;;;;;;9.00;8.00;;;;;;;;4961656;28;45542;-72
2023/05/21 13:34:12;;;;;;;;;6.75;6.75;;;;;;;;4955612;28;45446;-72
2023/05/21 13:36:38;;;;;;;;;8.75;8.50;;;;;;;;4961504;28;45623;-72
2023/05/21 13:39:04;;;;;;;;;10.25;8.50;;;;;;;;4967773;28;45412;-73
2023/05/21 13:41:30;;;;;;;;;7.50;7.50;;;;;;;;4968990;28;45437;-72
2023/05/21 13:43:55;;;;;;;;;14.25;12.75;;;;;;;;4964284;28;45464;-72
2023/05/21 13:46:20;;;;;;;;;11.00;11.00;;;;;;;;4973471;28;45389;-72
2023/05/21 13:48:45;;;;;;;;;11.25;11.25;;;;;;;;4960378;28;45466;-72
2023/05/21 13:51:10;;;;;;;;;9.75;9.00;;;;;;;;4966781;28;45354;-73
2023/05/21 13:53:36;;;;;;;;;9.75;9.50;;;;;;;;4963406;28;45446;-72
2023/05/21 13:56:01;;;;;;;;;8.75;8.75;;;;;;;;4955487;28;46814;-72
2023/05/21 13:58:26;;;;;;;;;8.50;7.25;;;;;;;;4973014;28;45240;-73
2023/05/21 14:00:52;;;;;;;;;9.50;9.25;;;;;;;;4964048;28;45325;-73
2023/05/21 14:03:17;;;;;;;;;8.00;7.75;;;;;;;;4965021;28;45433;-72
2023/05/21 14:05:43;;;;;;;;;11.50;11.50;;;;;;;;4960917;28;46788;-72
2023/05/21 14:08:08;;;;;;;;;9.00;9.00;;;;;;;;4973892;28;45318;-72
2023/05/21 14:10:33;;;;;;;;;10.00;10.00;;;;;;;;4971137;28;45346;-71
2023/05/21 14:12:58;;;;;;;;;11.25;10.25;;;;;;;;4965475;28;45367;-72
2023/05/21 14:15:24;;;;;;;;;8.50;8.00;;;;;;;;4968471;28;45976;-72
2023/05/21 14:17:51;;;;;;;;;10.00;8.25;;;;;;;;4975526;28;45276;-72